createdAt,value
2018-07-10T00:00:02.663Z,0
2018-07-10T00:05:02.564Z,3
2018-07-10T00:10:03.029Z,2
2018-07-10T00:15:02.510Z,3
2018-07-10T00:20:02.982Z,2
2018-07-10T00:25:03.431Z,2
2018-07-10T00:30:02.864Z,0
2018-07-10T00:35:03.331Z,0
2018-07-10T00:40:02.782Z,0
2018-07-10T00:45:03.226Z,2
2018-07-10T00:50:02.669Z,2
2018-07-10T00:55:03.134Z,3
2018-07-10T01:00:02.601Z,1
2018-07-10T01:05:03.102Z,0
2018-07-10T01:10:02.612Z,2
2018-07-10T01:15:03.043Z,2
2018-07-10T01:20:02.478Z,3
2018-07-10T01:25:02.972Z,4
2018-07-10T01:30:03.427Z,0
2018-07-10T01:35:03.172Z,0
2018-07-10T01:40:02.767Z,1
2018-07-10T01:45:03.228Z,3
2018-07-10T01:50:02.694Z,2
2018-07-10T01:55:03.090Z,2
2018-07-10T02:00:02.538Z,2
2018-07-10T02:05:03.008Z,1
2018-07-10T02:10:02.496Z,1
2018-07-10T02:15:02.915Z,1
2018-07-10T02:20:03.359Z,0
2018-07-10T02:25:02.788Z,0
2018-07-10T02:30:03.220Z,0
2018-07-10T02:35:02.670Z,2
2018-07-10T02:40:03.207Z,3
2018-07-10T02:45:02.703Z,2
2018-07-10T02:50:03.188Z,2
2018-07-10T03:00:03.509Z,2
2018-07-10T03:05:03.002Z,3
2018-07-10T03:10:02.573Z,2
2018-07-10T03:15:03.058Z,2
2018-07-10T03:20:02.518Z,0
2018-07-10T03:25:03.136Z,1
2018-07-10T03:30:02.600Z,3
2018-07-10T03:35:03.092Z,5
2018-07-10T03:40:02.557Z,1
2018-07-10T03:45:03.214Z,0
2018-07-10T03:50:02.658Z,0
2018-07-10T03:55:03.168Z,0
2018-07-10T04:00:02.616Z,0
2018-07-10T04:05:03.053Z,0
2018-07-10T04:10:02.557Z,0
2018-07-10T04:15:03.004Z,1
2018-07-10T04:20:03.454Z,2
2018-07-10T04:25:02.933Z,0
2018-07-10T04:30:03.147Z,1
2018-07-10T04:35:02.601Z,2
2018-07-10T04:40:03.177Z,1
2018-07-10T04:45:02.628Z,2
2018-07-10T04:50:03.084Z,3
2018-07-10T04:55:02.540Z,2
2018-07-10T05:00:03.018Z,3
2018-07-10T05:05:03.491Z,2
2018-07-10T05:10:03.025Z,3
2018-07-10T05:15:02.510Z,3
2018-07-10T05:20:02.998Z,5
2018-07-10T05:25:03.456Z,5
2018-07-10T05:30:02.959Z,3
2018-07-10T05:35:03.420Z,4
2018-07-10T05:40:02.946Z,4
2018-07-10T05:45:03.461Z,3
2018-07-10T05:50:02.904Z,2
2018-07-10T05:55:03.289Z,2
2018-07-10T06:00:02.943Z,3
2018-07-10T06:05:03.417Z,8
2018-07-10T06:10:02.941Z,2
2018-07-10T06:15:03.379Z,2
2018-07-10T06:20:02.819Z,2
2018-07-10T06:25:03.328Z,2
2018-07-10T06:30:02.776Z,2
2018-07-10T06:35:03.227Z,2
2018-07-10T06:40:02.780Z,5
2018-07-10T06:45:03.289Z,5
2018-07-10T06:50:02.691Z,3
2018-07-10T06:55:03.232Z,5
2018-07-10T07:00:02.747Z,6
2018-07-10T07:05:03.221Z,7
2018-07-10T07:10:02.770Z,6
2018-07-10T07:15:03.205Z,8
2018-07-10T07:20:02.702Z,4
2018-07-10T07:25:03.134Z,9
2018-07-10T07:30:02.886Z,9
2018-07-10T07:35:03.836Z,5
2018-07-10T07:40:02.525Z,5
2018-07-10T07:45:03.035Z,4
2018-07-10T07:50:02.569Z,4
2018-07-10T07:55:03.054Z,4
2018-07-10T08:00:02.536Z,8
2018-07-10T08:05:03.035Z,9
2018-07-10T08:10:02.650Z,5
2018-07-10T08:15:03.064Z,7
2018-07-10T08:20:02.811Z,6
2018-07-10T08:25:03.291Z,4
2018-07-10T08:30:02.811Z,7
2018-07-10T08:35:03.328Z,7
2018-07-10T08:40:02.809Z,7
2018-07-10T08:45:03.266Z,3
2018-07-10T08:50:02.747Z,7
2018-07-10T08:55:03.331Z,7
2018-07-10T09:00:02.777Z,6
2018-07-10T09:05:03.285Z,7
2018-07-10T09:10:02.823Z,5
2018-07-10T09:15:03.247Z,6
2018-07-10T09:20:02.778Z,9
2018-07-10T09:25:03.304Z,8
2018-07-10T09:30:02.795Z,10
2018-07-10T09:35:03.376Z,5
2018-07-10T09:40:02.830Z,7
2018-07-10T09:45:03.328Z,8
2018-07-10T09:50:02.682Z,12
2018-07-10T09:55:03.660Z,10
2018-07-10T10:00:03.408Z,8
2018-07-10T10:05:02.935Z,8
2018-07-10T10:10:03.429Z,7
2018-07-10T10:15:02.858Z,6
2018-07-10T10:20:03.384Z,10
2018-07-10T10:25:02.823Z,6
2018-07-10T10:30:03.280Z,10
2018-07-10T10:35:02.791Z,6
2018-07-10T10:40:03.265Z,9
2018-07-10T10:45:02.730Z,9
2018-07-10T10:55:02.989Z,6
2018-07-10T11:00:02.896Z,8
2018-07-10T11:10:03.203Z,10
2018-07-10T11:15:02.686Z,6
2018-07-10T11:20:03.137Z,9
2018-07-10T11:25:02.639Z,8
2018-07-10T11:30:03.185Z,6
2018-07-10T11:35:02.711Z,6
2018-07-10T11:40:03.136Z,5
2018-07-10T11:45:02.661Z,7
2018-07-10T11:50:03.194Z,9
2018-07-10T11:55:02.617Z,4
2018-07-10T12:05:02.983Z,7
2018-07-10T12:10:02.883Z,6
2018-07-10T12:20:02.970Z,7
2018-07-10T12:25:03.445Z,5
2018-07-10T12:30:02.890Z,8
2018-07-10T12:35:03.490Z,3
2018-07-10T12:40:02.979Z,7
2018-07-10T12:45:03.503Z,6
2018-07-10T12:50:03.010Z,3
2018-07-10T12:55:03.452Z,4
2018-07-10T13:00:02.942Z,5
2018-07-10T13:05:03.432Z,3
2018-07-10T13:15:02.876Z,3
2018-07-10T13:20:03.321Z,2
2018-07-10T13:30:03.295Z,2
2018-07-10T13:35:02.771Z,2
2018-07-10T13:40:03.256Z,2
2018-07-10T13:45:02.683Z,3
2018-07-10T13:50:03.210Z,3
2018-07-10T13:55:02.669Z,9
2018-07-10T14:00:03.066Z,6
2018-07-10T14:05:02.980Z,4
2018-07-10T14:10:03.483Z,7
2018-07-10T14:15:02.979Z,5
2018-07-10T14:20:03.563Z,2
2018-07-10T14:25:02.978Z,4
2018-07-10T14:30:03.385Z,4
2018-07-10T14:35:02.831Z,2
2018-07-10T14:40:03.416Z,4
2018-07-10T14:45:02.863Z,4
2018-07-10T14:50:03.381Z,5
2018-07-10T14:55:02.789Z,4
2018-07-10T15:00:03.306Z,5
2018-07-10T15:05:03.163Z,3
2018-07-10T15:10:02.679Z,4
2018-07-10T15:15:03.660Z,5
2018-07-10T15:20:02.502Z,5
2018-07-10T15:25:03.067Z,3
2018-07-10T15:30:03.763Z,7
2018-07-10T15:35:03.473Z,8
2018-07-10T15:40:02.978Z,3
2018-07-10T15:45:03.503Z,7
2018-07-10T15:50:02.945Z,5
2018-07-10T15:55:03.455Z,3
2018-07-10T16:00:02.911Z,8
2018-07-10T16:05:03.410Z,7
2018-07-10T16:10:02.886Z,5
2018-07-10T16:15:03.334Z,6
2018-07-10T16:20:02.802Z,5
2018-07-10T16:25:03.337Z,3
2018-07-10T16:30:02.806Z,9
2018-07-10T16:35:03.245Z,6
2018-07-10T16:40:02.820Z,5
2018-07-10T16:45:03.313Z,6
2018-07-10T16:50:02.773Z,3
2018-07-10T16:55:03.178Z,7
2018-07-10T17:00:02.630Z,6
2018-07-10T17:05:03.116Z,5
2018-07-10T17:10:02.841Z,5
2018-07-10T17:15:03.593Z,8
2018-07-10T17:20:03.230Z,4
2018-07-10T17:25:02.672Z,6
2018-07-10T17:30:03.076Z,7
2018-07-10T17:35:02.652Z,5
2018-07-10T17:40:03.125Z,8
2018-07-10T17:45:02.575Z,3
2018-07-10T17:50:03.058Z,5
2018-07-10T17:55:03.480Z,3
2018-07-10T18:00:02.978Z,9
2018-07-10T18:05:02.537Z,3
2018-07-10T18:10:03.005Z,7
2018-07-10T18:15:03.017Z,4
2018-07-10T18:20:02.804Z,4
2018-07-10T18:25:03.295Z,7
2018-07-10T18:30:02.733Z,9
2018-07-10T18:35:03.278Z,4
2018-07-10T18:40:02.709Z,4
2018-07-10T18:45:03.213Z,7
2018-07-10T18:50:02.699Z,4
2018-07-10T18:55:03.187Z,3
2018-07-10T19:00:02.606Z,3
2018-07-10T19:05:03.423Z,2
2018-07-10T19:10:02.965Z,2
2018-07-10T19:15:03.397Z,2
2018-07-10T19:20:02.820Z,3
2018-07-10T19:25:03.294Z,5
2018-07-10T19:30:02.680Z,5
2018-07-10T19:35:03.105Z,4
2018-07-10T19:40:02.651Z,4
2018-07-10T19:45:03.161Z,5
2018-07-10T19:50:02.631Z,5
2018-07-10T19:55:03.173Z,5
2018-07-10T20:00:03.068Z,5
2018-07-10T20:05:02.587Z,5
2018-07-10T20:10:03.117Z,3
2018-07-10T20:15:02.621Z,6
2018-07-10T20:20:03.118Z,3
2018-07-10T20:25:02.580Z,3
2018-07-10T20:30:03.076Z,3
2018-07-10T20:35:02.595Z,3
2018-07-10T20:40:03.150Z,2
2018-07-10T20:45:02.974Z,3
2018-07-10T20:50:03.476Z,4
2018-07-10T20:55:02.949Z,2
2018-07-10T21:00:03.820Z,4
2018-07-10T21:05:03.337Z,3
2018-07-10T21:10:02.907Z,1
2018-07-10T21:15:03.438Z,3
2018-07-10T21:20:02.889Z,3
2018-07-10T21:25:03.346Z,1
2018-07-10T21:30:03.369Z,3
2018-07-10T21:35:02.933Z,2
2018-07-10T21:40:03.402Z,2
2018-07-10T21:45:02.812Z,3
2018-07-10T21:50:03.302Z,2
2018-07-10T21:55:02.785Z,3
2018-07-10T22:00:03.292Z,2
2018-07-10T22:05:02.881Z,3
2018-07-10T22:10:03.501Z,4
2018-07-10T22:15:02.936Z,4
2018-07-10T22:20:03.598Z,2
2018-07-10T22:25:03.118Z,3
2018-07-10T22:30:02.677Z,2
2018-07-10T22:35:03.148Z,2
2018-07-10T22:40:02.738Z,2
2018-07-10T22:45:03.218Z,2
2018-07-10T22:50:02.681Z,1
2018-07-10T22:55:03.275Z,1
2018-07-10T23:00:02.765Z,2
2018-07-10T23:05:03.125Z,1
2018-07-10T23:10:02.618Z,2
2018-07-10T23:15:03.095Z,2
2018-07-10T23:20:02.561Z,2
2018-07-10T23:25:02.987Z,2
2018-07-10T23:30:03.484Z,1
2018-07-10T23:35:02.969Z,2
2018-07-10T23:40:02.491Z,0
2018-07-10T23:45:02.934Z,3
2018-07-10T23:50:03.432Z,0
2018-07-10T23:55:02.900Z,0
